createdAt,value
2022-08-07T00:00:03.026Z,39.58
2022-08-07T00:02:35.585Z,39.25
2022-08-07T00:03:11.265Z,39.09
2022-08-07T00:04:24.694Z,39.25
2022-08-07T00:05:37.437Z,39.25
2022-08-07T00:06:51.601Z,39.16
2022-08-07T00:08:02.518Z,39.00
2022-08-07T00:09:17.054Z,39.02
2022-08-07T00:10:33.688Z,38.87
2022-08-07T00:11:47.928Z,38.79
2022-08-07T00:13:23.480Z,38.76
2022-08-07T00:14:34.605Z,38.63
2022-08-07T00:15:50.935Z,38.53
2022-08-07T00:17:01.949Z,38.49
2022-08-07T00:18:19.676Z,38.32
2022-08-07T00:20:00.209Z,38.38
2022-08-07T00:21:07.896Z,38.20
2022-08-07T00:22:24.802Z,38.09
2022-08-07T00:23:46.768Z,37.76
2022-08-07T00:24:56.800Z,37.71
2022-08-07T00:26:13.047Z,37.58
2022-08-07T00:27:28.800Z,37.64
2022-08-07T00:28:58.311Z,37.75
2022-08-07T00:30:10.179Z,37.57
2022-08-07T00:31:42.138Z,37.46
2022-08-07T00:32:51.972Z,37.23
2022-08-07T00:34:01.014Z,37.17
2022-08-07T00:35:11.561Z,37.05
2022-08-07T00:36:25.285Z,36.90
2022-08-07T00:37:48.208Z,36.83
2022-08-07T00:38:57.106Z,36.86
2022-08-07T00:40:10.861Z,37.02
2022-08-07T00:41:29.024Z,37.10
2022-08-07T00:42:41.019Z,36.90
2022-08-07T00:44:01.402Z,36.79
2022-08-07T00:45:16.215Z,36.80
2022-08-07T00:46:24.746Z,36.92
2022-08-07T00:48:07.730Z,37.04
2022-08-07T00:49:04.778Z,37.31
2022-08-07T00:50:19.654Z,37.24
2022-08-07T00:51:57.503Z,37.26
2022-08-07T00:53:09.418Z,37.33
2022-08-07T00:54:20.423Z,37.48
2022-08-07T00:56:00.376Z,37.49
2022-08-07T00:57:03.479Z,37.48
2022-08-07T00:58:12.403Z,37.41
2022-08-07T00:59:35.458Z,37.44
2022-08-07T01:00:53.341Z,37.42
2022-08-07T01:02:06.344Z,37.28
2022-08-07T01:03:55.332Z,37.29
2022-08-07T01:04:52.847Z,37.35
2022-08-07T01:06:05.052Z,37.31
2022-08-07T01:07:15.570Z,37.12
2022-08-07T01:08:26.424Z,36.96
2022-08-07T01:10:06.349Z,36.84
2022-08-07T01:12:04.922Z,36.88
2022-08-07T01:12:53.285Z,36.84
2022-08-07T01:14:04.851Z,36.69
2022-08-07T01:15:17.706Z,36.61
2022-08-07T01:16:30.318Z,36.56
2022-08-07T01:17:41.973Z,36.51
2022-08-07T01:18:51.145Z,36.43
2022-08-07T01:20:09.384Z,36.53
2022-08-07T01:21:28.505Z,36.68
2022-08-07T01:22:46.786Z,36.65
2022-08-07T01:24:12.555Z,36.62
2022-08-07T01:25:53.543Z,36.51
2022-08-07T01:26:51.867Z,36.18
2022-08-07T01:28:03.478Z,36.15
2022-08-07T01:29:13.551Z,36.10
2022-08-07T01:30:27.222Z,36.05
2022-08-07T01:31:42.506Z,35.98
2022-08-07T01:32:55.281Z,36.07
2022-08-07T01:34:04.440Z,36.06
2022-08-07T01:35:24.467Z,35.93
2022-08-07T01:36:36.403Z,35.87
2022-08-07T01:37:56.718Z,35.82
2022-08-07T01:39:09.522Z,35.69
2022-08-07T01:40:24.459Z,35.71
2022-08-07T01:41:37.855Z,35.73
2022-08-07T01:42:58.584Z,35.69
2022-08-07T01:44:11.835Z,35.71
2022-08-07T01:45:36.333Z,35.57
2022-08-07T01:46:55.715Z,35.48
2022-08-07T01:48:20.614Z,35.55
2022-08-07T01:49:31.967Z,35.49
2022-08-07T01:50:43.294Z,35.27
2022-08-07T01:52:03.984Z,35.19
2022-08-07T01:53:21.622Z,35.12
2022-08-07T01:54:48.774Z,35.02
2022-08-07T01:56:03.571Z,34.95
2022-08-07T01:57:24.272Z,35.01
2022-08-07T01:58:37.450Z,34.99
2022-08-07T02:00:02.305Z,34.95
2022-08-07T02:01:59.802Z,34.81
2022-08-07T02:03:15.952Z,34.75
2022-08-07T02:04:55.830Z,34.67
2022-08-07T02:06:31.635Z,34.51
2022-08-07T02:07:52.509Z,34.36
2022-08-07T02:09:08.498Z,34.27
2022-08-07T02:10:21.118Z,34.16
2022-08-07T02:12:04.306Z,34.09
2022-08-07T02:13:01.960Z,33.99
2022-08-07T02:14:35.870Z,33.75
2022-08-07T02:15:46.173Z,33.61
2022-08-07T02:16:54.323Z,33.34
2022-08-07T02:18:03.741Z,33.17
2022-08-07T02:20:05.311Z,33.07
2022-08-07T02:20:48.630Z,32.79
2022-08-07T02:22:03.981Z,32.58
2022-08-07T02:23:23.999Z,32.41
2022-08-07T02:24:32.590Z,32.23
2022-08-07T02:26:31.341Z,32.07
2022-08-07T02:27:18.331Z,31.92
2022-08-07T02:28:30.435Z,31.70
2022-08-07T02:29:54.118Z,31.52
2022-08-07T02:31:28.492Z,31.24
2022-08-07T02:33:03.842Z,30.91
2022-08-07T02:34:11.448Z,30.62
2022-08-07T02:36:28.481Z,30.39
2022-08-07T02:37:01.285Z,30.16
2022-08-07T02:38:11.453Z,29.98
2022-08-07T02:39:43.098Z,29.84
2022-08-07T02:40:58.061Z,29.68
2022-08-07T02:42:10.004Z,29.55
2022-08-07T02:43:25.147Z,29.43
2022-08-07T02:44:37.997Z,29.34
2022-08-07T02:46:00.491Z,29.24
2022-08-07T02:47:19.474Z,29.15
2022-08-07T02:48:54.797Z,29.05
2022-08-07T02:50:03.934Z,28.95
2022-08-07T02:51:42.813Z,28.87
2022-08-07T02:53:06.461Z,28.77
2022-08-07T02:54:17.883Z,28.67
2022-08-07T02:56:04.076Z,28.60
2022-08-07T02:57:02.414Z,28.52
2022-08-07T02:58:17.525Z,28.46
2022-08-07T02:59:32.290Z,28.40
2022-08-07T03:00:47.079Z,28.34
2022-08-07T03:02:05.311Z,28.26
2022-08-07T03:03:13.794Z,28.19
2022-08-07T03:04:33.495Z,28.12
2022-08-07T03:05:44.069Z,28.05
2022-08-07T03:06:54.245Z,28.00
2022-08-07T03:08:07.283Z,27.95
2022-08-07T03:09:43.654Z,27.90
2022-08-07T03:10:53.601Z,27.84
2022-08-07T03:12:22.529Z,27.79
2022-08-07T03:13:49.478Z,27.74
2022-08-07T03:15:02.565Z,27.69
2022-08-07T03:16:22.915Z,27.64
2022-08-07T03:17:52.908Z,27.58
2022-08-07T03:19:05.717Z,27.53
2022-08-07T03:20:17.299Z,27.49
2022-08-07T03:21:26.166Z,27.45
2022-08-07T03:22:37.428Z,27.42
2022-08-07T03:24:20.497Z,27.36
2022-08-07T03:25:16.212Z,27.28
2022-08-07T03:26:35.269Z,27.24
2022-08-07T03:27:59.127Z,27.21
2022-08-07T03:29:14.782Z,27.16
2022-08-07T03:30:26.750Z,27.12
2022-08-07T03:31:43.530Z,27.07
2022-08-07T03:32:58.616Z,27.01
2022-08-07T03:34:18.542Z,26.93
2022-08-07T03:35:43.493Z,26.85
2022-08-07T03:36:59.426Z,26.80
2022-08-07T03:38:13.333Z,26.77
2022-08-07T03:39:45.961Z,26.74
2022-08-07T03:40:57.069Z,26.68
2022-08-07T03:42:07.492Z,26.64
2022-08-07T03:43:17.097Z,26.60
2022-08-07T03:44:34.226Z,26.55
2022-08-07T03:45:47.713Z,26.52
2022-08-07T03:47:13.821Z,26.49
2022-08-07T03:48:29.670Z,26.44
2022-08-07T03:49:38.288Z,26.40
2022-08-07T03:50:55.713Z,26.36
2022-08-07T03:52:26.082Z,26.30
2022-08-07T03:54:33.034Z,26.23
2022-08-07T03:55:12.420Z,26.18
2022-08-07T03:56:33.252Z,26.14
2022-08-07T03:58:35.388Z,26.10
2022-08-07T03:59:21.350Z,26.07
2022-08-07T04:00:30.410Z,26.07
2022-08-07T04:01:39.601Z,26.07
2022-08-07T04:02:56.745Z,26.04
2022-08-07T04:04:13.645Z,25.99
2022-08-07T04:05:39.363Z,25.94
2022-08-07T04:06:56.352Z,25.92
2022-08-07T04:08:16.278Z,25.91
2022-08-07T04:09:44.485Z,25.88
2022-08-07T04:12:23.627Z,25.85
2022-08-07T04:12:28.957Z,25.83
2022-08-07T04:14:09.403Z,25.83
2022-08-07T04:15:11.174Z,25.82
2022-08-07T04:16:31.058Z,25.83
2022-08-07T04:18:56.670Z,25.80
2022-08-07T04:19:17.773Z,25.80
2022-08-07T04:20:31.598Z,25.78
2022-08-07T04:21:48.002Z,25.74
2022-08-07T04:23:19.382Z,25.70
2022-08-07T04:24:34.273Z,25.65
2022-08-07T04:25:51.419Z,25.58
2022-08-07T04:27:04.560Z,25.53
2022-08-07T04:28:14.076Z,25.49
2022-08-07T04:29:22.502Z,25.46
2022-08-07T04:30:43.380Z,25.44
2022-08-07T04:32:11.637Z,25.39
2022-08-07T04:33:20.588Z,25.36
2022-08-07T04:34:33.245Z,25.33
2022-08-07T04:35:54.017Z,25.27
2022-08-07T04:37:20.137Z,25.22
2022-08-07T04:38:29.925Z,25.19
2022-08-07T04:39:49.769Z,25.17
2022-08-07T04:40:59.861Z,25.16
2022-08-07T04:42:32.968Z,25.11
2022-08-07T04:44:11.920Z,25.05
2022-08-07T04:45:57.798Z,25.00
2022-08-07T04:47:09.109Z,25.02
2022-08-07T04:48:56.092Z,25.00
2022-08-07T04:50:30.012Z,24.98
2022-08-07T04:52:13.800Z,24.96
2022-08-07T04:54:01.048Z,24.93
2022-08-07T04:58:23.768Z,24.81
2022-08-07T04:58:24.302Z,24.88
2022-08-07T04:59:18.549Z,24.77
2022-08-07T05:00:49.896Z,24.72
2022-08-07T05:02:30.687Z,24.68
2022-08-07T05:04:06.440Z,24.65
2022-08-07T05:05:53.206Z,24.64
2022-08-07T05:07:19.659Z,24.61
2022-08-07T05:09:01.469Z,24.55
2022-08-07T05:10:32.443Z,24.50
2022-08-07T05:11:57.407Z,24.49
2022-08-07T05:14:54.447Z,24.46
2022-08-07T05:15:23.270Z,24.37
2022-08-07T05:16:43.968Z,24.25
2022-08-07T05:18:08.869Z,24.16
2022-08-07T05:19:25.795Z,24.08
2022-08-07T05:20:58.708Z,24.02
2022-08-07T05:22:11.579Z,24.00
2022-08-07T05:23:32.305Z,23.98
2022-08-07T05:24:47.627Z,23.96
2022-08-07T05:26:13.328Z,23.95
2022-08-07T05:28:15.980Z,23.94
2022-08-07T05:29:04.383Z,23.91
2022-08-07T05:30:16.267Z,23.89
2022-08-07T05:31:47.522Z,23.88
2022-08-07T05:33:06.991Z,23.88
2022-08-07T05:34:18.723Z,23.88
2022-08-07T05:35:33.181Z,23.89
2022-08-07T05:36:49.202Z,23.90
2022-08-07T05:38:09.928Z,23.94
2022-08-07T05:40:06.664Z,23.96
2022-08-07T05:40:52.451Z,23.98
2022-08-07T05:42:06.388Z,24.00
2022-08-07T05:43:49.817Z,24.01
2022-08-07T05:45:14.632Z,24.01
2022-08-07T05:46:26.545Z,24.02
2022-08-07T05:48:02.597Z,24.06
2022-08-07T05:49:12.528Z,24.09
2022-08-07T05:50:24.010Z,24.09
2022-08-07T05:51:33.437Z,24.10
2022-08-07T05:52:51.959Z,24.10
2022-08-07T05:54:14.069Z,24.08
2022-08-07T05:56:03.018Z,24.04
2022-08-07T05:57:04.162Z,23.98
2022-08-07T05:58:13.788Z,23.95
2022-08-07T05:59:23.914Z,23.91
2022-08-07T06:00:37.324Z,23.85
2022-08-07T06:01:50.310Z,23.79
2022-08-07T06:02:58.705Z,23.71
2022-08-07T06:04:11.636Z,23.63
2022-08-07T06:05:32.950Z,23.54
2022-08-07T06:06:56.671Z,23.45
2022-08-07T06:08:30.421Z,23.37
2022-08-07T06:10:03.741Z,23.30
2022-08-07T06:11:08.998Z,23.23
2022-08-07T06:12:31.789Z,23.18
2022-08-07T06:14:11.522Z,23.13
2022-08-07T06:15:15.188Z,23.08
2022-08-07T06:16:25.566Z,23.06
2022-08-07T06:17:41.327Z,23.03
2022-08-07T06:19:03.925Z,22.99
2022-08-07T06:20:31.662Z,22.94
2022-08-07T06:22:15.599Z,22.88
2022-08-07T06:23:46.003Z,22.80
2022-08-07T06:24:58.094Z,22.71
2022-08-07T06:26:17.961Z,22.61
2022-08-07T06:27:44.071Z,22.56
2022-08-07T06:28:56.334Z,22.53
2022-08-07T06:30:04.965Z,22.50
2022-08-07T06:31:15.148Z,22.47
2022-08-07T06:32:25.344Z,22.44
2022-08-07T06:33:38.062Z,22.41
2022-08-07T06:34:48.507Z,22.38
2022-08-07T06:36:12.427Z,22.35
2022-08-07T06:37:43.840Z,22.31
2022-08-07T06:40:13.563Z,22.27
2022-08-07T06:40:32.369Z,22.25
2022-08-07T06:42:14.380Z,22.23
2022-08-07T06:44:01.407Z,22.19
2022-08-07T06:45:21.049Z,22.18
2022-08-07T06:46:35.943Z,22.17
2022-08-07T06:47:59.077Z,22.16
2022-08-07T06:49:15.167Z,22.17
2022-08-07T06:50:23.933Z,22.19
2022-08-07T06:51:33.579Z,22.22
2022-08-07T06:52:52.933Z,22.27
2022-08-07T06:55:27.948Z,22.30
2022-08-07T06:55:53.521Z,22.29
2022-08-07T06:57:03.868Z,22.24
2022-08-07T06:58:16.717Z,22.18
2022-08-07T07:00:13.246Z,22.17
2022-08-07T07:01:14.158Z,22.16
2022-08-07T07:02:48.453Z,22.16
2022-08-07T07:03:55.103Z,22.15
2022-08-07T07:05:12.749Z,22.14
2022-08-07T07:06:26.142Z,22.14
2022-08-07T07:07:59.243Z,22.12
2022-08-07T07:09:24.172Z,22.12
2022-08-07T07:10:47.247Z,22.14
2022-08-07T07:12:15.589Z,22.15
2022-08-07T07:13:55.325Z,22.15
2022-08-07T07:15:03.645Z,22.15
2022-08-07T07:16:18.080Z,22.14
2022-08-07T07:17:39.048Z,22.13
2022-08-07T07:18:59.831Z,22.13
2022-08-07T07:20:22.765Z,22.11
2022-08-07T07:22:04.219Z,22.11
2022-08-07T07:24:06.490Z,22.11
2022-08-07T07:24:34.709Z,22.09
2022-08-07T07:26:31.416Z,22.09
2022-08-07T07:27:15.756Z,22.07
2022-08-07T07:29:56.017Z,22.02
2022-08-07T07:30:32.457Z,21.97
2022-08-07T07:31:53.745Z,21.94
2022-08-07T07:33:03.594Z,21.91
2022-08-07T07:34:15.563Z,21.87
2022-08-07T07:35:25.464Z,21.83
2022-08-07T07:36:43.485Z,21.79
2022-08-07T07:37:59.689Z,21.74
2022-08-07T07:39:13.080Z,21.70
2022-08-07T07:40:26.235Z,21.64
2022-08-07T07:42:02.316Z,21.59
2022-08-07T07:43:15.508Z,21.50
2022-08-07T07:44:30.665Z,21.41
2022-08-07T07:46:38.296Z,21.36
2022-08-07T07:47:22.741Z,21.33
2022-08-07T07:48:35.991Z,21.29
2022-08-07T07:50:36.533Z,21.28
2022-08-07T07:51:18.488Z,21.26
2022-08-07T07:52:28.570Z,21.25
2022-08-07T07:53:51.661Z,21.23
2022-08-07T07:55:03.545Z,21.23
2022-08-07T07:56:13.322Z,21.22
2022-08-07T07:57:43.822Z,21.22
2022-08-07T07:58:58.090Z,21.24
2022-08-07T08:00:07.263Z,21.26
2022-08-07T08:02:01.571Z,21.26
2022-08-07T08:03:01.207Z,21.26
2022-08-07T08:04:15.336Z,21.26
2022-08-07T08:05:30.277Z,21.24
2022-08-07T08:06:56.432Z,21.25
2022-08-07T08:08:32.413Z,21.25
2022-08-07T08:09:52.032Z,21.21
2022-08-07T08:11:16.391Z,21.14
2022-08-07T08:12:58.984Z,21.12
2022-08-07T08:14:12.605Z,21.10
2022-08-07T08:15:23.323Z,21.08
2022-08-07T08:16:39.839Z,21.06
2022-08-07T08:17:57.846Z,21.03
2022-08-07T08:19:29.601Z,21.00
2022-08-07T08:20:43.497Z,21.01
2022-08-07T08:22:13.173Z,21.04
2022-08-07T08:23:47.196Z,21.04
2022-08-07T08:25:24.612Z,21.03
2022-08-07T08:27:09.259Z,21.03
2022-08-07T08:28:37.849Z,21.02
2022-08-07T08:29:59.592Z,20.99
2022-08-07T08:31:22.755Z,20.94
2022-08-07T08:32:51.517Z,20.88
2022-08-07T08:34:02.534Z,20.89
2022-08-07T08:35:15.325Z,20.93
2022-08-07T08:36:33.825Z,21.00
2022-08-07T08:38:01.039Z,21.02
2022-08-07T08:39:10.086Z,21.04
2022-08-07T08:40:32.183Z,21.02
2022-08-07T08:41:57.804Z,20.98
2022-08-07T08:43:42.099Z,20.96
2022-08-07T08:45:13.404Z,20.97
2022-08-07T08:46:36.473Z,20.98
2022-08-07T08:48:28.395Z,21.01
2022-08-07T08:50:14.111Z,21.03
2022-08-07T08:51:49.717Z,21.04
2022-08-07T08:53:32.794Z,21.01
2022-08-07T08:55:04.622Z,20.97
2022-08-07T08:56:18.572Z,20.93
2022-08-07T08:57:56.477Z,20.89
2022-08-07T08:59:23.333Z,20.84
2022-08-07T09:00:34.763Z,20.79
2022-08-07T09:01:59.470Z,20.74
2022-08-07T09:03:18.396Z,20.72
2022-08-07T09:04:57.956Z,20.71
2022-08-07T09:06:13.753Z,20.69
2022-08-07T09:07:46.372Z,20.66
2022-08-07T09:09:23.812Z,20.60
2022-08-07T09:11:03.298Z,20.54
2022-08-07T09:12:53.012Z,20.49
2022-08-07T09:14:21.109Z,20.44
2022-08-07T09:16:22.154Z,20.39
2022-08-07T09:18:13.095Z,20.33
2022-08-07T09:19:51.798Z,20.27
2022-08-07T09:21:58.277Z,20.21
2022-08-07T09:24:31.058Z,20.16
2022-08-07T09:24:59.328Z,20.12
2022-08-07T09:26:37.754Z,20.09
2022-08-07T09:29:22.341Z,20.04
2022-08-07T09:30:04.599Z,19.97
2022-08-07T09:31:38.664Z,19.94
2022-08-07T09:32:54.075Z,19.94
2022-08-07T09:34:09.823Z,19.95
2022-08-07T09:36:09.529Z,19.93
2022-08-07T09:37:47.819Z,19.90
2022-08-07T09:39:11.419Z,19.91
2022-08-07T09:40:37.629Z,19.93
2022-08-07T09:41:58.653Z,19.94
2022-08-07T09:43:20.332Z,19.95
2022-08-07T09:47:25.421Z,19.92
2022-08-07T09:47:55.665Z,19.85
2022-08-07T09:50:02.655Z,19.78
2022-08-07T09:51:03.456Z,19.67
2022-08-07T09:52:38.282Z,19.58
2022-08-07T09:53:49.001Z,19.52
2022-08-07T09:55:17.081Z,19.50
2022-08-07T09:57:18.523Z,19.50
2022-08-07T09:58:52.205Z,19.50
2022-08-07T10:00:24.381Z,19.48
2022-08-07T10:02:04.869Z,19.45
2022-08-07T10:04:06.762Z,19.45
2022-08-07T10:05:13.766Z,19.47
2022-08-07T10:06:54.036Z,19.49
2022-08-07T10:08:29.445Z,19.49
2022-08-07T10:09:58.846Z,19.49
2022-08-07T10:12:03.365Z,19.48
2022-08-07T10:12:52.879Z,19.48
2022-08-07T10:14:40.704Z,19.49
2022-08-07T10:16:25.345Z,19.50
2022-08-07T10:18:01.777Z,19.50
2022-08-07T10:19:45.406Z,19.51
2022-08-07T10:21:20.031Z,19.47
2022-08-07T10:22:52.837Z,19.43
2022-08-07T10:24:10.160Z,19.43
2022-08-07T10:25:43.638Z,19.44
2022-08-07T10:27:12.852Z,19.43
2022-08-07T10:28:52.989Z,19.42
2022-08-07T10:30:39.856Z,19.40
2022-08-07T10:32:36.438Z,19.37
2022-08-07T10:34:06.569Z,19.34
2022-08-07T10:35:56.397Z,19.31
2022-08-07T10:38:00.132Z,19.26
2022-08-07T10:39:13.457Z,19.22
2022-08-07T10:40:54.504Z,19.19
2022-08-07T10:42:41.453Z,19.15
2022-08-07T10:44:07.649Z,19.11
2022-08-07T10:45:44.921Z,19.09
2022-08-07T10:47:52.744Z,19.09
2022-08-07T10:49:24.584Z,19.10
2022-08-07T10:50:54.778Z,19.09
2022-08-07T10:52:13.273Z,19.07
2022-08-07T10:53:44.450Z,19.07
2022-08-07T10:55:07.953Z,19.06
2022-08-07T10:56:54.199Z,19.06
2022-08-07T10:58:12.801Z,19.06
2022-08-07T10:59:47.572Z,19.04
2022-08-07T11:01:11.633Z,19.01
2022-08-07T11:02:35.218Z,18.98
2022-08-07T11:04:17.038Z,18.97
2022-08-07T11:06:05.775Z,18.95
2022-08-07T11:07:59.326Z,18.90
2022-08-07T11:10:10.159Z,18.85
2022-08-07T11:11:21.907Z,18.85
2022-08-07T11:13:02.313Z,18.88
2022-08-07T11:14:43.826Z,18.95
2022-08-07T11:15:44.699Z,19.00
2022-08-07T11:17:07.414Z,19.06
2022-08-07T11:18:44.182Z,19.09
2022-08-07T11:20:10.952Z,19.16
2022-08-07T11:21:42.875Z,19.23
2022-08-07T11:22:54.782Z,19.26
2022-08-07T11:24:22.656Z,19.29
2022-08-07T11:25:42.305Z,19.29
2022-08-07T11:27:20.685Z,19.35
2022-08-07T11:28:55.176Z,19.42
2022-08-07T11:30:17.732Z,19.51
2022-08-07T11:32:03.877Z,19.56
2022-08-07T11:33:54.207Z,19.56
2022-08-07T11:35:25.303Z,19.53
2022-08-07T11:37:00.344Z,19.47
2022-08-07T11:38:33.021Z,19.40
2022-08-07T11:40:05.433Z,19.32
2022-08-07T11:41:28.336Z,19.24
2022-08-07T11:42:49.172Z,19.17
2022-08-07T11:44:26.304Z,19.12
2022-08-07T11:45:58.778Z,19.05
2022-08-07T11:47:15.624Z,18.98
2022-08-07T11:49:04.163Z,18.93
2022-08-07T11:50:32.646Z,18.89
2022-08-07T11:51:55.560Z,18.88
2022-08-07T11:54:01.703Z,18.87
2022-08-07T11:56:09.494Z,18.82
2022-08-07T11:57:17.504Z,18.78
2022-08-07T11:59:03.246Z,18.78
2022-08-07T12:01:02.560Z,18.76
2022-08-07T12:02:53.664Z,18.75
2022-08-07T12:04:33.122Z,18.74
2022-08-07T12:06:37.878Z,18.72
2022-08-07T12:08:25.815Z,18.65
2022-08-07T12:10:05.667Z,18.63
2022-08-07T12:11:23.986Z,18.62
2022-08-07T12:12:54.544Z,18.58
2022-08-07T12:14:29.524Z,18.56
2022-08-07T12:16:05.695Z,18.52
2022-08-07T12:17:19.834Z,18.49
2022-08-07T12:19:02.803Z,18.48
2022-08-07T12:20:30.834Z,18.43
2022-08-07T12:22:38.781Z,18.41
2022-08-07T12:24:07.449Z,18.38
2022-08-07T12:26:02.853Z,18.36
2022-08-07T12:27:27.882Z,18.34
2022-08-07T12:29:03.715Z,18.32
2022-08-07T12:30:12.865Z,18.31
2022-08-07T12:32:04.197Z,18.30
2022-08-07T12:33:28.110Z,18.28
2022-08-07T12:34:49.388Z,18.24
2022-08-07T12:36:04.716Z,18.27
2022-08-07T12:37:28.589Z,18.31
2022-08-07T12:38:57.665Z,18.32
2022-08-07T12:40:19.111Z,18.36
2022-08-07T12:41:49.471Z,18.42
2022-08-07T12:43:02.996Z,18.45
2022-08-07T12:44:18.467Z,18.47
2022-08-07T12:45:52.328Z,18.47
2022-08-07T12:47:06.314Z,18.48
2022-08-07T12:48:28.237Z,18.49
2022-08-07T12:50:34.072Z,18.48
2022-08-07T12:52:12.123Z,18.47
2022-08-07T12:54:03.155Z,18.46
2022-08-07T12:56:02.096Z,18.47
2022-08-07T12:57:12.367Z,18.48
2022-08-07T12:58:35.440Z,18.51
2022-08-07T12:59:54.736Z,18.54
2022-08-07T13:01:32.193Z,18.55
2022-08-07T13:03:07.285Z,18.55
2022-08-07T13:05:01.049Z,18.58
2022-08-07T13:06:27.829Z,18.60
2022-08-07T13:08:14.159Z,18.63
2022-08-07T13:10:20.453Z,18.66
2022-08-07T13:11:20.004Z,18.69
2022-08-07T13:12:34.888Z,18.71
2022-08-07T13:13:49.499Z,18.75
2022-08-07T13:15:23.498Z,18.78
2022-08-07T13:17:18.189Z,18.82
2022-08-07T13:19:03.698Z,18.87
2022-08-07T13:20:14.764Z,18.91
2022-08-07T13:22:12.627Z,18.96
2022-08-07T13:24:03.747Z,19.04
2022-08-07T13:25:36.412Z,19.07
2022-08-07T13:26:48.397Z,19.09
2022-08-07T13:28:14.012Z,19.13
2022-08-07T13:29:34.892Z,19.15
2022-08-07T13:30:53.202Z,19.16
2022-08-07T13:32:35.065Z,19.16
2022-08-07T13:34:34.251Z,19.20
2022-08-07T13:35:59.581Z,19.26
2022-08-07T13:37:40.253Z,19.36
2022-08-07T13:39:13.179Z,19.64
2022-08-07T13:40:42.121Z,20.09
2022-08-07T13:41:54.702Z,20.34
2022-08-07T13:43:11.817Z,20.54
2022-08-07T13:44:34.565Z,20.74
2022-08-07T13:46:12.455Z,20.97
2022-08-07T13:47:21.765Z,21.23
2022-08-07T13:48:38.718Z,21.41
2022-08-07T13:50:32.911Z,21.53
2022-08-07T13:51:28.477Z,21.68
2022-08-07T13:52:47.031Z,21.86
2022-08-07T13:54:00.781Z,22.01
2022-08-07T13:55:25.555Z,22.18
2022-08-07T13:56:40.924Z,22.22
2022-08-07T13:58:31.500Z,22.13
2022-08-07T13:59:46.264Z,22.01
2022-08-07T14:01:09.359Z,21.93
2022-08-07T14:02:33.294Z,21.89
2022-08-07T14:04:08.132Z,21.96
2022-08-07T14:05:17.547Z,22.17
2022-08-07T14:06:42.230Z,22.48
2022-08-07T14:07:59.462Z,22.89
2022-08-07T14:10:00.489Z,23.33
2022-08-07T14:10:43.520Z,23.78
2022-08-07T14:12:07.245Z,24.14
2022-08-07T14:13:18.187Z,24.43
2022-08-07T14:14:33.095Z,24.70
2022-08-07T14:15:50.641Z,24.98
2022-08-07T14:17:32.366Z,25.20
2022-08-07T14:18:42.337Z,25.39
2022-08-07T14:20:42.729Z,25.53
2022-08-07T14:22:01.187Z,25.77
2022-08-07T14:24:00.109Z,26.07
2022-08-07T14:25:03.320Z,26.41
2022-08-07T14:26:30.364Z,26.64
2022-08-07T14:28:10.272Z,26.96
2022-08-07T14:30:07.652Z,27.38
2022-08-07T14:30:54.993Z,27.63
2022-08-07T14:32:07.101Z,27.72
2022-08-07T14:33:17.179Z,27.72
2022-08-07T14:34:32.878Z,27.94
2022-08-07T14:35:44.559Z,28.28
2022-08-07T14:36:56.727Z,28.53
2022-08-07T14:38:06.024Z,28.60
2022-08-07T14:40:17.344Z,28.57
2022-08-07T14:40:43.269Z,28.47
2022-08-07T14:42:19.613Z,28.32
2022-08-07T14:43:58.219Z,28.18
2022-08-07T14:45:21.855Z,28.26
2022-08-07T14:46:32.455Z,28.39
2022-08-07T14:47:42.301Z,28.48
2022-08-07T14:48:54.130Z,28.56
2022-08-07T14:50:05.314Z,28.67
2022-08-07T14:51:17.220Z,28.83
2022-08-07T14:52:27.979Z,29.05
2022-08-07T14:54:05.948Z,29.30
2022-08-07T14:55:10.471Z,29.61
2022-08-07T14:56:29.534Z,29.77
2022-08-07T14:57:55.115Z,30.12
2022-08-07T14:59:13.812Z,30.40
2022-08-07T15:00:36.533Z,30.50
2022-08-07T15:04:53.152Z,30.32
2022-08-07T15:07:47.374Z,30.56
2022-08-07T15:09:58.332Z,30.79
2022-08-07T15:10:32.980Z,30.76
2022-08-07T15:12:01.481Z,30.82
2022-08-07T15:13:25.494Z,31.02
2022-08-07T15:14:58.243Z,31.34
2022-08-07T15:16:10.835Z,31.44
2022-08-07T15:17:22.314Z,31.56
2022-08-07T15:18:35.978Z,31.65
2022-08-07T15:21:50.765Z,31.85
2022-08-07T15:23:20.094Z,31.85
2022-08-07T15:25:14.409Z,31.92
2022-08-07T15:28:32.367Z,32.11
2022-08-07T15:32:11.722Z,32.81
2022-08-07T15:33:21.263Z,33.07
2022-08-07T15:38:17.903Z,34.24
2022-08-07T15:39:26.935Z,34.44
2022-08-07T15:41:22.829Z,34.52
2022-08-07T15:42:57.024Z,34.53
2022-08-07T15:44:13.547Z,34.58
2022-08-07T15:45:57.602Z,34.98
2022-08-07T15:47:09.103Z,35.23
2022-08-07T15:48:34.296Z,35.37
2022-08-07T15:50:04.171Z,35.55
2022-08-07T15:51:11.933Z,35.73
2022-08-07T15:52:30.577Z,35.82
2022-08-07T15:53:52.838Z,35.92
2022-08-07T15:55:11.597Z,36.00
2022-08-07T15:56:20.721Z,35.99
2022-08-07T15:57:39.673Z,36.02
2022-08-07T15:59:01.209Z,35.90
2022-08-07T16:00:09.984Z,36.00
2022-08-07T16:02:01.906Z,36.35
2022-08-07T16:03:47.158Z,36.63
2022-08-07T16:05:02.149Z,36.69
2022-08-07T16:06:10.627Z,36.61
2022-08-07T16:08:28.587Z,36.60
2022-08-07T16:08:47.366Z,36.62
2022-08-07T16:10:04.849Z,36.70
2022-08-07T16:11:44.794Z,36.78
2022-08-07T16:13:00.944Z,36.79
2022-08-07T16:14:22.939Z,36.95
2022-08-07T16:15:55.665Z,37.38
2022-08-07T16:18:01.274Z,37.52
2022-08-07T16:18:51.705Z,37.61
2022-08-07T16:20:33.881Z,37.58
2022-08-07T16:22:31.496Z,37.46
2022-08-07T16:23:55.099Z,37.37
2022-08-07T16:25:55.425Z,37.35
2022-08-07T16:27:17.992Z,37.32
2022-08-07T16:30:06.516Z,37.23
2022-08-07T16:30:30.171Z,37.22
2022-08-07T16:31:58.530Z,37.25
2022-08-07T16:34:01.508Z,37.34
2022-08-07T16:34:50.573Z,37.43
2022-08-07T16:36:31.163Z,37.32
2022-08-07T16:38:18.631Z,37.30
2022-08-07T16:39:55.620Z,37.54
2022-08-07T16:41:22.383Z,37.69
2022-08-07T16:42:37.520Z,37.74
2022-08-07T16:44:46.405Z,37.86
2022-08-07T16:46:40.486Z,38.17
2022-08-07T16:48:06.771Z,38.36
2022-08-07T16:50:27.247Z,38.51
2022-08-07T16:51:54.199Z,38.76
2022-08-07T16:53:55.578Z,39.08
2022-08-07T16:54:55.104Z,39.25
2022-08-07T16:56:22.442Z,39.39
2022-08-07T16:58:04.312Z,39.73
2022-08-07T16:59:46.088Z,40.04
2022-08-07T17:01:20.987Z,40.17
2022-08-07T17:03:05.096Z,40.31
2022-08-07T17:04:57.839Z,40.05
2022-08-07T17:06:30.682Z,39.77
2022-08-07T17:08:02.027Z,39.55
2022-08-07T17:10:05.455Z,39.33
2022-08-07T17:10:54.954Z,39.07
2022-08-07T17:12:35.815Z,38.95
2022-08-07T17:14:19.017Z,39.06
2022-08-07T17:15:43.701Z,39.27
2022-08-07T17:16:58.928Z,39.46
2022-08-07T17:18:46.026Z,39.68
2022-08-07T17:20:03.497Z,39.78
2022-08-07T17:22:05.429Z,39.76
2022-08-07T17:23:33.121Z,39.74
2022-08-07T17:24:56.363Z,39.81
2022-08-07T17:26:24.249Z,39.82
2022-08-07T17:27:57.510Z,39.67
2022-08-07T17:30:15.476Z,39.65
2022-08-07T17:31:36.366Z,39.72
2022-08-07T17:34:08.891Z,39.50
2022-08-07T17:35:33.035Z,39.56
2022-08-07T17:36:26.027Z,39.63
2022-08-07T17:38:06.510Z,39.45
2022-08-07T17:39:58.402Z,39.07
2022-08-07T17:42:04.761Z,38.87
2022-08-07T17:42:58.394Z,38.77
2022-08-07T17:44:50.162Z,38.63
2022-08-07T17:46:15.417Z,38.66
2022-08-07T17:47:42.282Z,38.84
2022-08-07T17:49:23.000Z,38.82
2022-08-07T17:50:42.568Z,38.88
2022-08-07T17:52:01.470Z,38.95
2022-08-07T17:53:52.598Z,38.93
2022-08-07T17:54:55.413Z,38.84
2022-08-07T17:56:15.409Z,38.77
2022-08-07T17:57:58.955Z,38.84
2022-08-07T17:59:36.026Z,38.99
2022-08-07T18:00:48.395Z,39.16
2022-08-07T18:02:23.398Z,39.16
2022-08-07T18:04:04.141Z,39.09
2022-08-07T18:05:21.547Z,39.05
2022-08-07T18:06:38.898Z,39.16
2022-08-07T18:07:48.535Z,39.39
2022-08-07T18:09:05.712Z,39.44
2022-08-07T18:10:32.514Z,39.38
2022-08-07T18:12:28.009Z,39.46
2022-08-07T18:13:50.269Z,39.42
2022-08-07T18:15:21.966Z,39.48
2022-08-07T18:16:58.216Z,39.59
2022-08-07T18:18:46.614Z,39.85
2022-08-07T18:21:07.069Z,40.02
2022-08-07T18:21:40.232Z,40.17
2022-08-07T18:22:56.705Z,40.37
2022-08-07T18:24:33.655Z,40.71
2022-08-07T18:25:44.131Z,41.05
2022-08-07T18:27:38.469Z,41.28
2022-08-07T18:30:06.901Z,41.46
2022-08-07T18:31:08.309Z,41.68
2022-08-07T18:32:46.180Z,41.66
2022-08-07T18:34:34.744Z,41.65
2022-08-07T18:36:02.611Z,41.72
2022-08-07T18:38:57.383Z,41.72
2022-08-07T18:40:07.484Z,41.77